IGO1871 VOMM-FMEE
Flight info
| Callsign | IGO1871 |
|---|---|
| Flight time | 5h 46m |
| Altitude | 38000 |
| Route | TEGUT2B TEGUT DCT APAVU DCT PUTUR DCT RAMPU DCT HAPUR DCT OSERA DCT MUGBA DCT RONJI DCT OMBAB DCT LEVLU DCT GESOD DCT ETLID DCT OKMAR DCT NIBIS NIBIS2R |
| Aircraft | A20N/M-SDE2E3FGHIRWXY/LB1 |
Departure
| Time | 2026-05-05 07:02 |
|---|---|
| Airport | Chennai International Airport (VOMM) |
Arrival
| Time | 2026-05-05 12:49 |
|---|---|
| Airport | Roland Garros Airport (FMEE) |
| Time | Latitude | Longitude | Altitude | Speed | Heading |
|---|---|---|---|---|---|
| 2026-05-05 06:38 | 12.98466 | 80.16213 | 55 ft | 0 kts | 340° |
| 2026-05-05 06:51 | 12.98461 | 80.16215 | 53 ft | 2 kts | 339° |
| 2026-05-05 06:52 | 12.98445 | 80.16221 | 54 ft | 2 kts | 340° |
| 2026-05-05 06:52 | 12.98430 | 80.16226 | 55 ft | 2 kts | 341° |
| 2026-05-05 06:52 | 12.98416 | 80.16231 | 49 ft | 2 kts | 345° |
| 2026-05-05 06:52 | 12.98400 | 80.16233 | 50 ft | 2 kts | 35° |
| 2026-05-05 06:53 | 12.98393 | 80.16225 | 48 ft | 0 kts | 80° |
| 2026-05-05 06:54 | 12.98394 | 80.16228 | 49 ft | 1 kts | 78° |
| 2026-05-05 06:55 | 12.98400 | 80.16244 | 50 ft | 4 kts | 69° |
| 2026-05-05 06:55 | 12.98418 | 80.16294 | 50 ft | 11 kts | 70° |
| 2026-05-05 06:55 | 12.98450 | 80.16382 | 53 ft | 15 kts | 70° |
| 2026-05-05 06:55 | 12.98487 | 80.16486 | 51 ft | 16 kts | 69° |
| 2026-05-05 06:56 | 12.98529 | 80.16599 | 52 ft | 18 kts | 69° |
| 2026-05-05 06:56 | 12.98564 | 80.16694 | 52 ft | 14 kts | 69° |
| 2026-05-05 06:56 | 12.98609 | 80.16765 | 53 ft | 11 kts | 15° |
| 2026-05-05 06:56 | 12.98684 | 80.16745 | 54 ft | 12 kts | 339° |
| 2026-05-05 06:57 | 12.98757 | 80.16745 | 55 ft | 11 kts | 45° |
| 2026-05-05 06:57 | 12.98790 | 80.16824 | 51 ft | 13 kts | 69° |
| 2026-05-05 06:57 | 12.98825 | 80.16918 | 53 ft | 15 kts | 69° |
| 2026-05-05 06:57 | 12.98865 | 80.17025 | 51 ft | 17 kts | 69° |
| 2026-05-05 06:58 | 12.98909 | 80.17141 | 51 ft | 18 kts | 71° |
| 2026-05-05 06:58 | 12.98964 | 80.17261 | 51 ft | 20 kts | 60° |
| 2026-05-05 06:58 | 12.99018 | 80.17393 | 54 ft | 21 kts | 68° |
| 2026-05-05 06:58 | 12.99071 | 80.17534 | 53 ft | 22 kts | 69° |
| 2026-05-05 06:59 | 12.99124 | 80.17672 | 53 ft | 16 kts | 59° |
| 2026-05-05 06:59 | 12.99206 | 80.17723 | 49 ft | 13 kts | 56° |
| 2026-05-05 06:59 | 12.99242 | 80.17814 | 52 ft | 15 kts | 69° |
| 2026-05-05 06:59 | 12.99280 | 80.17918 | 50 ft | 16 kts | 69° |
| 2026-05-05 07:00 | 12.99323 | 80.18032 | 50 ft | 18 kts | 69° |
| 2026-05-05 07:00 | 12.99362 | 80.18147 | 58 ft | 17 kts | 83° |
| 2026-05-05 07:00 | 12.99375 | 80.18256 | 53 ft | 13 kts | 63° |
| 2026-05-05 07:00 | 12.99433 | 80.18324 | 49 ft | 14 kts | 42° |
| 2026-05-05 07:01 | 12.99510 | 80.18396 | 54 ft | 13 kts | 42° |
| 2026-05-05 07:01 | 12.99570 | 80.18398 | 56 ft | 8 kts | 303° |
| 2026-05-05 07:01 | 12.99566 | 80.18359 | 50 ft | 3 kts | 248° |
| 2026-05-05 07:01 | 12.99530 | 80.18268 | 53 ft | 39 kts | 248° |
| 2026-05-05 07:02 | 12.99356 | 80.17802 | 52 ft | 98 kts | 249° |
| 2026-05-05 07:02 | 12.99054 | 80.16999 | 53 ft | 142 kts | 249° |
| 2026-05-05 07:02 | 12.98667 | 80.15945 | 199 ft | 164 kts | 248° |
| 2026-05-05 07:02 | 12.98299 | 80.14902 | 755 ft | 158 kts | 249° |
| 2026-05-05 07:03 | 12.97895 | 80.13783 | 1024 ft | 174 kts | 246° |
| 2026-05-05 07:03 | 12.97457 | 80.12626 | 1586 ft | 174 kts | 245° |
| 2026-05-05 07:03 | 12.97003 | 80.11442 | 2023 ft | 185 kts | 246° |
| 2026-05-05 07:03 | 12.96509 | 80.10160 | 2445 ft | 203 kts | 246° |
| 2026-05-05 07:04 | 12.95961 | 80.08741 | 2853 ft | 223 kts | 246° |
| 2026-05-05 07:04 | 12.95370 | 80.07188 | 3131 ft | 247 kts | 248° |
| 2026-05-05 07:04 | 12.94724 | 80.05475 | 3518 ft | 265 kts | 248° |
| 2026-05-05 07:04 | 12.94051 | 80.03693 | 4161 ft | 271 kts | 248° |
| 2026-05-05 07:05 | 12.93366 | 80.01878 | 4882 ft | 275 kts | 248° |
| 2026-05-05 07:05 | 12.92668 | 80.00034 | 5515 ft | 281 kts | 248° |
| 2026-05-05 07:05 | 12.91949 | 79.98135 | 6147 ft | 287 kts | 248° |
| 2026-05-05 07:05 | 12.91219 | 79.96210 | 6823 ft | 290 kts | 249° |
| 2026-05-05 07:06 | 12.90484 | 79.94276 | 7483 ft | 293 kts | 249° |
| 2026-05-05 07:06 | 12.89682 | 79.92370 | 8126 ft | 296 kts | 242° |
| 2026-05-05 07:06 | 12.88673 | 79.90506 | 8763 ft | 301 kts | 241° |
| 2026-05-05 07:06 | 12.87654 | 79.88613 | 9401 ft | 305 kts | 242° |
| 2026-05-05 07:07 | 12.86631 | 79.86700 | 10011 ft | 310 kts | 242° |
| 2026-05-05 07:07 | 12.85566 | 79.84703 | 10252 ft | 329 kts | 242° |
| 2026-05-05 07:07 | 12.84438 | 79.82590 | 10435 ft | 347 kts | 242° |
| 2026-05-05 07:07 | 12.83255 | 79.80375 | 10815 ft | 358 kts | 241° |
| 2026-05-05 07:08 | 12.82054 | 79.78129 | 11474 ft | 359 kts | 241° |
| 2026-05-05 07:08 | 12.80851 | 79.75879 | 12104 ft | 361 kts | 241° |
| 2026-05-05 07:08 | 12.79617 | 79.73621 | 12732 ft | 364 kts | 236° |
| 2026-05-05 07:08 | 12.77948 | 79.71669 | 13325 ft | 366 kts | 219° |
| 2026-05-05 07:09 | 12.75780 | 79.70306 | 13894 ft | 367 kts | 201° |
| 2026-05-05 07:09 | 12.73392 | 79.69376 | 14460 ft | 367 kts | 200° |
| 2026-05-05 07:09 | 12.71031 | 79.68466 | 15054 ft | 367 kts | 200° |
| 2026-05-05 07:09 | 12.68634 | 79.67539 | 15623 ft | 368 kts | 200° |
| 2026-05-05 07:10 | 12.66230 | 79.66605 | 16127 ft | 371 kts | 201° |
| 2026-05-05 07:10 | 12.63806 | 79.65661 | 16624 ft | 373 kts | 201° |
| 2026-05-05 07:10 | 12.61369 | 79.64711 | 17140 ft | 375 kts | 201° |
| 2026-05-05 07:10 | 12.58932 | 79.63761 | 17654 ft | 376 kts | 201° |
| 2026-05-05 07:11 | 12.56483 | 79.62807 | 18144 ft | 378 kts | 201° |
| 2026-05-05 07:11 | 12.54011 | 79.61844 | 18547 ft | 381 kts | 201° |
| 2026-05-05 07:11 | 12.51527 | 79.60877 | 18938 ft | 383 kts | 201° |
| 2026-05-05 07:11 | 12.49028 | 79.59904 | 19342 ft | 385 kts | 201° |
| 2026-05-05 07:12 | 12.46512 | 79.58926 | 19728 ft | 388 kts | 201° |
| 2026-05-05 07:12 | 12.43976 | 79.57939 | 20122 ft | 390 kts | 201° |
| 2026-05-05 07:12 | 12.41426 | 79.56947 | 20507 ft | 393 kts | 201° |
| 2026-05-05 07:12 | 12.38872 | 79.55953 | 20898 ft | 395 kts | 201° |
| 2026-05-05 07:13 | 12.36292 | 79.54949 | 21256 ft | 398 kts | 201° |
| 2026-05-05 07:13 | 12.33695 | 79.53940 | 21639 ft | 400 kts | 201° |
| 2026-05-05 07:13 | 12.31204 | 79.52971 | 21996 ft | 402 kts | 201° |
| 2026-05-05 07:13 | 12.28584 | 79.51952 | 22344 ft | 404 kts | 201° |
| 2026-05-05 07:14 | 12.25945 | 79.50926 | 22695 ft | 407 kts | 201° |
| 2026-05-05 07:14 | 12.23291 | 79.49894 | 23057 ft | 409 kts | 201° |
| 2026-05-05 07:14 | 12.21492 | 79.49195 | 23280 ft | 411 kts | 201° |
| 2026-05-05 07:15 | 12.10126 | 79.44782 | 24485 ft | 420 kts | 201° |
| 2026-05-05 07:15 | 12.07381 | 79.43717 | 24764 ft | 422 kts | 201° |
| 2026-05-05 07:16 | 12.04621 | 79.42646 | 25027 ft | 424 kts | 201° |
| 2026-05-05 07:16 | 12.01857 | 79.41574 | 25282 ft | 426 kts | 201° |
| 2026-05-05 07:16 | 11.99071 | 79.40494 | 25548 ft | 428 kts | 201° |
| 2026-05-05 07:16 | 11.96281 | 79.39413 | 25797 ft | 430 kts | 201° |
| 2026-05-05 07:17 | 11.93466 | 79.38322 | 26048 ft | 432 kts | 201° |
| 2026-05-05 07:17 | 11.90688 | 79.37246 | 26296 ft | 434 kts | 201° |
| 2026-05-05 07:17 | 11.87850 | 79.36147 | 26523 ft | 437 kts | 201° |
| 2026-05-05 07:17 | 11.85010 | 79.35047 | 26742 ft | 438 kts | 201° |
| 2026-05-05 07:18 | 11.82147 | 79.33937 | 26979 ft | 440 kts | 201° |
| 2026-05-05 07:18 | 11.79269 | 79.32823 | 27213 ft | 442 kts | 201° |
| 2026-05-05 07:18 | 11.76382 | 79.31706 | 27433 ft | 444 kts | 201° |
| 2026-05-05 07:18 | 11.73486 | 79.30586 | 27652 ft | 446 kts | 201° |
| 2026-05-05 07:19 | 11.70584 | 79.29463 | 27870 ft | 448 kts | 201° |
| 2026-05-05 07:19 | 11.67662 | 79.28332 | 28083 ft | 449 kts | 201° |
| 2026-05-05 07:19 | 11.64727 | 79.27197 | 28279 ft | 451 kts | 201° |
| 2026-05-05 07:19 | 11.61818 | 79.25997 | 28475 ft | 452 kts | 207° |
| 2026-05-05 07:20 | 11.59138 | 79.24379 | 28673 ft | 453 kts | 217° |
| 2026-05-05 07:20 | 11.56737 | 79.22293 | 28854 ft | 454 kts | 226° |
| 2026-05-05 07:20 | 11.54711 | 79.19871 | 29040 ft | 455 kts | 232° |
| 2026-05-05 07:20 | 11.52715 | 79.17301 | 29233 ft | 457 kts | 232° |
| 2026-05-05 07:21 | 11.50737 | 79.14768 | 29432 ft | 458 kts | 232° |
| 2026-05-05 07:21 | 11.48742 | 79.12221 | 29610 ft | 460 kts | 231° |
| 2026-05-05 07:21 | 11.46747 | 79.09676 | 29798 ft | 462 kts | 231° |
| 2026-05-05 07:21 | 11.44739 | 79.07116 | 29980 ft | 463 kts | 231° |
| 2026-05-05 07:22 | 11.42714 | 79.04535 | 30142 ft | 464 kts | 231° |
| 2026-05-05 07:22 | 11.40697 | 79.01964 | 30329 ft | 465 kts | 231° |
| 2026-05-05 07:22 | 11.38670 | 78.99382 | 30501 ft | 467 kts | 231° |
| 2026-05-05 07:22 | 11.36650 | 78.96807 | 30674 ft | 468 kts | 231° |
| 2026-05-05 07:23 | 11.34620 | 78.94221 | 30845 ft | 469 kts | 231° |
| 2026-05-05 07:23 | 11.32573 | 78.91615 | 31073 ft | 469 kts | 231° |
| 2026-05-05 07:23 | 11.30531 | 78.89016 | 31310 ft | 468 kts | 231° |
| 2026-05-05 07:23 | 11.28495 | 78.86424 | 31557 ft | 467 kts | 231° |
| 2026-05-05 07:24 | 11.26461 | 78.83836 | 31794 ft | 467 kts | 231° |
| 2026-05-05 07:24 | 11.24437 | 78.81261 | 32025 ft | 466 kts | 231° |
| 2026-05-05 07:24 | 11.22420 | 78.78696 | 32249 ft | 465 kts | 231° |
| 2026-05-05 07:24 | 11.20389 | 78.76114 | 32457 ft | 465 kts | 231° |
| 2026-05-05 07:25 | 11.18368 | 78.73545 | 32679 ft | 464 kts | 231° |
| 2026-05-05 07:25 | 11.16353 | 78.70985 | 32881 ft | 464 kts | 231° |
| 2026-05-05 07:25 | 11.14976 | 78.69236 | 33024 ft | 463 kts | 231° |
| 2026-05-05 07:25 | 11.12966 | 78.66682 | 33227 ft | 462 kts | 231° |
| 2026-05-05 07:26 | 11.10949 | 78.64120 | 33409 ft | 462 kts | 231° |
| 2026-05-05 07:26 | 11.08939 | 78.61568 | 33604 ft | 462 kts | 232° |
| 2026-05-05 07:26 | 11.06931 | 78.59018 | 33773 ft | 462 kts | 232° |
| 2026-05-05 07:26 | 11.04915 | 78.56460 | 33925 ft | 461 kts | 231° |
| 2026-05-05 07:27 | 11.02912 | 78.53919 | 34086 ft | 460 kts | 231° |
| 2026-05-05 07:27 | 11.00906 | 78.51374 | 34234 ft | 460 kts | 231° |
| 2026-05-05 07:27 | 10.98904 | 78.48834 | 34392 ft | 459 kts | 231° |
| 2026-05-05 07:27 | 10.96904 | 78.46299 | 34522 ft | 459 kts | 231° |
| 2026-05-05 07:28 | 10.94909 | 78.43770 | 34668 ft | 459 kts | 231° |
| 2026-05-05 07:28 | 10.92914 | 78.41241 | 34788 ft | 458 kts | 231° |
| 2026-05-05 07:28 | 10.91587 | 78.39560 | 34872 ft | 458 kts | 231° |
| 2026-05-05 07:28 | 10.88917 | 78.36178 | 35037 ft | 458 kts | 231° |
| 2026-05-05 07:29 | 10.86921 | 78.33650 | 35161 ft | 458 kts | 231° |
| 2026-05-05 07:29 | 10.84926 | 78.31123 | 35276 ft | 458 kts | 231° |
| 2026-05-05 07:29 | 10.82933 | 78.28600 | 35411 ft | 458 kts | 231° |
| 2026-05-05 07:29 | 10.80963 | 78.26108 | 35529 ft | 457 kts | 230° |
| 2026-05-05 07:30 | 10.78969 | 78.23585 | 35634 ft | 458 kts | 230° |
| 2026-05-05 07:30 | 10.74978 | 78.18537 | 35855 ft | 458 kts | 230° |
| 2026-05-05 07:30 | 10.72983 | 78.16015 | 35962 ft | 458 kts | 230° |
| 2026-05-05 07:31 | 10.70990 | 78.13497 | 36064 ft | 458 kts | 230° |
| 2026-05-05 07:31 | 10.68994 | 78.10974 | 36170 ft | 458 kts | 230° |
| 2026-05-05 07:31 | 10.66996 | 78.08450 | 36275 ft | 458 kts | 230° |
| 2026-05-05 07:31 | 10.64996 | 78.05923 | 36377 ft | 458 kts | 230° |
| 2026-05-05 07:32 | 10.60992 | 78.00869 | 36571 ft | 459 kts | 230° |
| 2026-05-05 07:32 | 10.58992 | 77.98343 | 36685 ft | 458 kts | 230° |
| 2026-05-05 07:32 | 10.56992 | 77.95820 | 36776 ft | 458 kts | 230° |
| 2026-05-05 07:33 | 10.52992 | 77.90773 | 36967 ft | 458 kts | 230° |
| 2026-05-05 07:33 | 10.48487 | 77.86226 | 37138 ft | 456 kts | 215° |
| 2026-05-05 07:34 | 10.43000 | 77.83052 | 37274 ft | 455 kts | 205° |
| 2026-05-05 07:34 | 10.37296 | 77.80264 | 37425 ft | 455 kts | 205° |
| 2026-05-05 07:35 | 10.31606 | 77.77465 | 37626 ft | 454 kts | 205° |
| 2026-05-05 07:35 | 10.27833 | 77.75612 | 37719 ft | 454 kts | 205° |
| 2026-05-05 07:36 | 10.23136 | 77.73306 | 37846 ft | 453 kts | 205° |
| 2026-05-05 07:36 | 10.20286 | 77.71908 | 37903 ft | 454 kts | 205° |
| 2026-05-05 07:36 | 10.14610 | 77.69125 | 37897 ft | 454 kts | 205° |
| 2026-05-05 07:37 | 10.08914 | 77.66333 | 37894 ft | 454 kts | 205° |
| 2026-05-05 07:37 | 10.03229 | 77.63546 | 37892 ft | 455 kts | 205° |
| 2026-05-05 07:38 | 9.97518 | 77.60749 | 37893 ft | 455 kts | 205° |
| 2026-05-05 07:38 | 9.91817 | 77.57957 | 37882 ft | 455 kts | 205° |
| 2026-05-05 07:39 | 9.86108 | 77.55162 | 37880 ft | 455 kts | 205° |
| 2026-05-05 07:39 | 9.80434 | 77.52386 | 37877 ft | 455 kts | 205° |
| 2026-05-05 07:40 | 9.74741 | 77.49601 | 37871 ft | 455 kts | 205° |
| 2026-05-05 07:40 | 9.69028 | 77.46808 | 37883 ft | 456 kts | 205° |
| 2026-05-05 07:41 | 9.63530 | 77.44120 | 37877 ft | 456 kts | 205° |
| 2026-05-05 07:41 | 9.57821 | 77.41330 | 37883 ft | 456 kts | 205° |
| 2026-05-05 07:42 | 9.52094 | 77.38533 | 37887 ft | 456 kts | 205° |
| 2026-05-05 07:42 | 9.46375 | 77.35741 | 37894 ft | 456 kts | 205° |
| 2026-05-05 07:43 | 9.40658 | 77.32951 | 37887 ft | 457 kts | 205° |
| 2026-05-05 07:43 | 9.35893 | 77.30626 | 37891 ft | 457 kts | 205° |
| 2026-05-05 07:44 | 9.30148 | 77.27824 | 37893 ft | 457 kts | 205° |
| 2026-05-05 07:44 | 9.24444 | 77.25043 | 37899 ft | 458 kts | 205° |
| 2026-05-05 07:45 | 9.18706 | 77.22246 | 37887 ft | 458 kts | 205° |
| 2026-05-05 07:45 | 9.13025 | 77.19341 | 37887 ft | 457 kts | 211° |
| 2026-05-05 07:46 | 9.07819 | 77.15683 | 37888 ft | 456 kts | 216° |
| 2026-05-05 07:46 | 9.02707 | 77.11865 | 37889 ft | 457 kts | 216° |
| 2026-05-05 07:47 | 8.97589 | 77.08058 | 37880 ft | 456 kts | 216° |
| 2026-05-05 07:47 | 8.92475 | 77.04253 | 37866 ft | 456 kts | 216° |
| 2026-05-05 07:48 | 8.87367 | 77.00453 | 37865 ft | 457 kts | 216° |
| 2026-05-05 07:48 | 8.82833 | 76.97080 | 37867 ft | 457 kts | 216° |
| 2026-05-05 07:49 | 8.77681 | 76.93249 | 37856 ft | 457 kts | 216° |
| 2026-05-05 07:49 | 8.72586 | 76.89462 | 37855 ft | 458 kts | 216° |
| 2026-05-05 07:50 | 8.67439 | 76.85669 | 37855 ft | 458 kts | 215° |
| 2026-05-05 07:50 | 8.62193 | 76.81935 | 37874 ft | 459 kts | 214° |
| 2026-05-05 07:51 | 8.57011 | 76.78244 | 37859 ft | 458 kts | 214° |
| 2026-05-05 07:51 | 8.51796 | 76.74517 | 37861 ft | 460 kts | 214° |
| 2026-05-05 07:52 | 8.46569 | 76.70779 | 37861 ft | 460 kts | 214° |
| 2026-05-05 07:52 | 8.41328 | 76.67033 | 37859 ft | 462 kts | 214° |
| 2026-05-05 07:53 | 8.36064 | 76.63271 | 37861 ft | 462 kts | 214° |
| 2026-05-05 07:53 | 8.30814 | 76.59521 | 37863 ft | 463 kts | 215° |
| 2026-05-05 07:54 | 8.25545 | 76.55758 | 37861 ft | 463 kts | 215° |
| 2026-05-05 07:54 | 8.20309 | 76.52021 | 37856 ft | 464 kts | 215° |
| 2026-05-05 07:55 | 8.15032 | 76.48256 | 37862 ft | 464 kts | 215° |
| 2026-05-05 07:55 | 8.09764 | 76.44498 | 37863 ft | 463 kts | 214° |
| 2026-05-05 07:56 | 8.04499 | 76.40743 | 37865 ft | 463 kts | 214° |
| 2026-05-05 07:56 | 7.99239 | 76.36993 | 37866 ft | 462 kts | 214° |
| 2026-05-05 07:57 | 7.93993 | 76.33256 | 37862 ft | 462 kts | 214° |
| 2026-05-05 07:57 | 7.88773 | 76.29536 | 37868 ft | 461 kts | 214° |
| 2026-05-05 07:58 | 7.83534 | 76.25806 | 37866 ft | 461 kts | 214° |
| 2026-05-05 07:58 | 7.78292 | 76.22074 | 37869 ft | 461 kts | 214° |
| 2026-05-05 07:59 | 7.73064 | 76.18352 | 37867 ft | 460 kts | 214° |
| 2026-05-05 07:59 | 7.67834 | 76.14632 | 37870 ft | 460 kts | 214° |
| 2026-05-05 08:00 | 7.62591 | 76.10903 | 37871 ft | 460 kts | 214° |
| 2026-05-05 08:00 | 7.57363 | 76.07186 | 37870 ft | 459 kts | 214° |
| 2026-05-05 08:01 | 7.52154 | 76.03483 | 37868 ft | 458 kts | 214° |
| 2026-05-05 08:01 | 7.46976 | 75.99803 | 37872 ft | 457 kts | 214° |
| 2026-05-05 08:02 | 7.41774 | 75.96108 | 37869 ft | 456 kts | 214° |
| 2026-05-05 08:02 | 7.36587 | 75.92423 | 37871 ft | 455 kts | 214° |
| 2026-05-05 08:03 | 7.31489 | 75.88804 | 37861 ft | 454 kts | 214° |
| 2026-05-05 08:03 | 7.26247 | 75.85083 | 37875 ft | 455 kts | 214° |
| 2026-05-05 08:04 | 7.21087 | 75.81422 | 37880 ft | 457 kts | 214° |
| 2026-05-05 08:04 | 7.15893 | 75.77738 | 37874 ft | 457 kts | 214° |
| 2026-05-05 08:05 | 7.10685 | 75.74045 | 37880 ft | 457 kts | 214° |
| 2026-05-05 08:05 | 7.05472 | 75.70351 | 37877 ft | 458 kts | 214° |
| 2026-05-05 08:06 | 7.00266 | 75.66661 | 37876 ft | 458 kts | 214° |
| 2026-05-05 08:06 | 6.95034 | 75.62954 | 37880 ft | 459 kts | 214° |
| 2026-05-05 08:07 | 6.89812 | 75.59255 | 37879 ft | 459 kts | 215° |
| 2026-05-05 08:07 | 6.84585 | 75.55553 | 37880 ft | 459 kts | 215° |
| 2026-05-05 08:08 | 6.79361 | 75.51854 | 37878 ft | 459 kts | 215° |
| 2026-05-05 08:08 | 6.74132 | 75.48153 | 37883 ft | 460 kts | 215° |
| 2026-05-05 08:09 | 6.68886 | 75.44441 | 37881 ft | 461 kts | 214° |
| 2026-05-05 08:09 | 6.63667 | 75.40749 | 37880 ft | 462 kts | 215° |
| 2026-05-05 08:10 | 6.58404 | 75.37027 | 37883 ft | 463 kts | 215° |
| 2026-05-05 08:10 | 6.53139 | 75.33304 | 37882 ft | 463 kts | 215° |
| 2026-05-05 08:11 | 6.48718 | 75.30179 | 37881 ft | 463 kts | 214° |
| 2026-05-05 08:11 | 6.42580 | 75.25841 | 37884 ft | 464 kts | 214° |
| 2026-05-05 08:12 | 6.37299 | 75.22110 | 37880 ft | 465 kts | 214° |
| 2026-05-05 08:12 | 6.31996 | 75.18364 | 37878 ft | 465 kts | 214° |
| 2026-05-05 08:13 | 6.26707 | 75.14630 | 37882 ft | 465 kts | 214° |
| 2026-05-05 08:13 | 6.21402 | 75.10885 | 37879 ft | 466 kts | 214° |
| 2026-05-05 08:14 | 6.16090 | 75.07135 | 37878 ft | 466 kts | 214° |
| 2026-05-05 08:14 | 6.10784 | 75.03391 | 37878 ft | 467 kts | 214° |
| 2026-05-05 08:15 | 6.05497 | 74.99662 | 37880 ft | 466 kts | 214° |
| 2026-05-05 08:15 | 6.00199 | 74.95919 | 37879 ft | 466 kts | 216° |
| 2026-05-05 08:16 | 5.95065 | 74.91863 | 37878 ft | 465 kts | 218° |
| 2026-05-05 08:16 | 5.90022 | 74.87848 | 37880 ft | 466 kts | 218° |
| 2026-05-05 08:17 | 5.84933 | 74.83801 | 37876 ft | 467 kts | 218° |
| 2026-05-05 08:17 | 5.79835 | 74.79749 | 37875 ft | 466 kts | 217° |
| 2026-05-05 08:18 | 5.74741 | 74.75701 | 37873 ft | 466 kts | 217° |
| 2026-05-05 08:18 | 5.69691 | 74.71689 | 37871 ft | 468 kts | 217° |
| 2026-05-05 08:19 | 5.64629 | 74.67667 | 37877 ft | 466 kts | 217° |
| 2026-05-05 08:19 | 5.59532 | 74.63620 | 37874 ft | 467 kts | 217° |
| 2026-05-05 08:20 | 5.54435 | 74.59573 | 37875 ft | 466 kts | 217° |
| 2026-05-05 08:20 | 5.49342 | 74.55531 | 37876 ft | 466 kts | 217° |
| 2026-05-05 08:21 | 5.44259 | 74.51497 | 37872 ft | 466 kts | 217° |
| 2026-05-05 08:21 | 5.39169 | 74.47460 | 37874 ft | 466 kts | 217° |
| 2026-05-05 08:22 | 5.34116 | 74.43452 | 37874 ft | 466 kts | 217° |
| 2026-05-05 08:22 | 5.29034 | 74.39421 | 37872 ft | 467 kts | 217° |
| 2026-05-05 08:23 | 5.23937 | 74.35379 | 37877 ft | 466 kts | 217° |
| 2026-05-05 08:23 | 5.18849 | 74.31345 | 37877 ft | 466 kts | 217° |
| 2026-05-05 08:24 | 5.13762 | 74.27314 | 37878 ft | 466 kts | 217° |
| 2026-05-05 08:24 | 5.08699 | 74.23302 | 37877 ft | 465 kts | 217° |
| 2026-05-05 08:25 | 5.03586 | 74.19250 | 37874 ft | 466 kts | 217° |
| 2026-05-05 08:25 | 4.98502 | 74.15224 | 37876 ft | 465 kts | 217° |
| 2026-05-05 08:26 | 4.93464 | 74.11234 | 37876 ft | 466 kts | 217° |
| 2026-05-05 08:26 | 4.88360 | 74.07193 | 37875 ft | 466 kts | 217° |
| 2026-05-05 08:27 | 4.83433 | 74.02981 | 37878 ft | 466 kts | 223° |
| 2026-05-05 08:27 | 4.78760 | 73.98475 | 37872 ft | 466 kts | 223° |
| 2026-05-05 08:28 | 4.74082 | 73.93987 | 37873 ft | 466 kts | 223° |
| 2026-05-05 08:28 | 4.69391 | 73.89489 | 37874 ft | 466 kts | 223° |
| 2026-05-05 08:29 | 4.64710 | 73.85000 | 37873 ft | 465 kts | 223° |
| 2026-05-05 08:30 | 4.58492 | 73.79037 | 37870 ft | 465 kts | 223° |
| 2026-05-05 08:30 | 4.53808 | 73.74548 | 37872 ft | 465 kts | 223° |
| 2026-05-05 08:31 | 4.52232 | 73.73038 | 37873 ft | 465 kts | 223° |
| 2026-05-05 08:31 | 4.44387 | 73.65520 | 37887 ft | 465 kts | 223° |
| 2026-05-05 08:32 | 4.39701 | 73.61030 | 37893 ft | 465 kts | 223° |
| 2026-05-05 08:32 | 4.35063 | 73.56588 | 37900 ft | 464 kts | 223° |
| 2026-05-05 08:33 | 4.30389 | 73.52112 | 37904 ft | 464 kts | 223° |
| 2026-05-05 08:33 | 4.25715 | 73.47637 | 37908 ft | 465 kts | 223° |
| 2026-05-05 08:34 | 4.21046 | 73.43167 | 37909 ft | 464 kts | 223° |
| 2026-05-05 08:34 | 4.16409 | 73.38730 | 37907 ft | 463 kts | 223° |
| 2026-05-05 08:35 | 4.11738 | 73.34260 | 37897 ft | 463 kts | 223° |
| 2026-05-05 08:35 | 4.07073 | 73.29796 | 37894 ft | 463 kts | 223° |
| 2026-05-05 08:36 | 4.02412 | 73.25337 | 37881 ft | 463 kts | 223° |
| 2026-05-05 08:36 | 3.97783 | 73.20910 | 37871 ft | 463 kts | 223° |
| 2026-05-05 08:37 | 3.92945 | 73.16688 | 37877 ft | 460 kts | 214° |
| 2026-05-05 08:37 | 3.87760 | 73.12906 | 37876 ft | 460 kts | 215° |
| 2026-05-05 08:38 | 3.82590 | 73.09109 | 37875 ft | 460 kts | 215° |
| 2026-05-05 08:38 | 3.77426 | 73.05315 | 37873 ft | 459 kts | 215° |
| 2026-05-05 08:39 | 3.72276 | 73.01534 | 37873 ft | 459 kts | 215° |
| 2026-05-05 08:39 | 3.67121 | 72.97750 | 37879 ft | 459 kts | 215° |
| 2026-05-05 08:40 | 3.61985 | 72.93981 | 37874 ft | 458 kts | 215° |
| 2026-05-05 08:40 | 3.56872 | 72.90229 | 37871 ft | 458 kts | 215° |
| 2026-05-05 08:41 | 3.51742 | 72.86465 | 37866 ft | 457 kts | 215° |
| 2026-05-05 08:41 | 3.46578 | 72.82678 | 37872 ft | 457 kts | 215° |
| 2026-05-05 08:42 | 3.41476 | 72.78937 | 37868 ft | 457 kts | 215° |
| 2026-05-05 08:42 | 3.36351 | 72.75178 | 37866 ft | 457 kts | 215° |
| 2026-05-05 08:43 | 3.31191 | 72.71395 | 37877 ft | 456 kts | 215° |
| 2026-05-05 08:43 | 3.26071 | 72.67642 | 37868 ft | 456 kts | 215° |
| 2026-05-05 08:44 | 3.21805 | 72.64515 | 37878 ft | 456 kts | 215° |
| 2026-05-05 08:44 | 3.15852 | 72.60151 | 37870 ft | 456 kts | 215° |
| 2026-05-05 08:45 | 3.11557 | 72.57004 | 37873 ft | 456 kts | 215° |
| 2026-05-05 08:45 | 3.06439 | 72.53253 | 37872 ft | 456 kts | 215° |
| 2026-05-05 08:46 | 3.01320 | 72.49502 | 37869 ft | 456 kts | 216° |
| 2026-05-05 08:46 | 2.96193 | 72.45746 | 37866 ft | 456 kts | 216° |
| 2026-05-05 08:47 | 2.91072 | 72.41995 | 37869 ft | 457 kts | 216° |
| 2026-05-05 08:47 | 2.85935 | 72.38232 | 37871 ft | 457 kts | 216° |
| 2026-05-05 08:48 | 2.80851 | 72.34508 | 37869 ft | 457 kts | 216° |
| 2026-05-05 08:48 | 2.75696 | 72.30733 | 37868 ft | 458 kts | 216° |
| 2026-05-05 08:49 | 2.70542 | 72.26959 | 37864 ft | 459 kts | 216° |
| 2026-05-05 08:49 | 2.65396 | 72.23192 | 37860 ft | 460 kts | 216° |
| 2026-05-05 08:50 | 2.60224 | 72.19405 | 37870 ft | 461 kts | 216° |
| 2026-05-05 08:50 | 2.55019 | 72.15596 | 37867 ft | 464 kts | 216° |
| 2026-05-05 08:51 | 2.49802 | 72.11778 | 37873 ft | 464 kts | 216° |
| 2026-05-05 08:51 | 2.44620 | 72.07985 | 37878 ft | 465 kts | 216° |
| 2026-05-05 08:52 | 2.39353 | 72.04131 | 37869 ft | 466 kts | 216° |
| 2026-05-05 08:52 | 2.34160 | 72.00331 | 37869 ft | 466 kts | 216° |
| 2026-05-05 08:53 | 2.28933 | 71.96506 | 37870 ft | 465 kts | 215° |
| 2026-05-05 08:53 | 2.23690 | 71.92672 | 37868 ft | 466 kts | 215° |
| 2026-05-05 08:54 | 2.18468 | 71.88852 | 37866 ft | 466 kts | 215° |
| 2026-05-05 08:54 | 2.13233 | 71.85023 | 37867 ft | 466 kts | 215° |
| 2026-05-05 08:55 | 2.07999 | 71.81196 | 37867 ft | 466 kts | 215° |
| 2026-05-05 08:55 | 2.02768 | 71.77370 | 37867 ft | 466 kts | 215° |
| 2026-05-05 08:56 | 1.97526 | 71.73536 | 37868 ft | 465 kts | 215° |
| 2026-05-05 08:56 | 1.92320 | 71.69729 | 37862 ft | 466 kts | 215° |
| 2026-05-05 08:57 | 1.87069 | 71.65891 | 37873 ft | 465 kts | 215° |
| 2026-05-05 08:57 | 1.81848 | 71.62074 | 37867 ft | 465 kts | 215° |
| 2026-05-05 08:58 | 1.76656 | 71.58279 | 37870 ft | 465 kts | 215° |
| 2026-05-05 08:58 | 1.71421 | 71.54453 | 37871 ft | 466 kts | 215° |
| 2026-05-05 08:59 | 1.66201 | 71.50637 | 37865 ft | 465 kts | 215° |
| 2026-05-05 08:59 | 1.60980 | 71.46821 | 37866 ft | 466 kts | 215° |
| 2026-05-05 09:00 | 1.55731 | 71.42985 | 37867 ft | 466 kts | 215° |
| 2026-05-05 09:00 | 1.50505 | 71.39166 | 37869 ft | 466 kts | 215° |
| 2026-05-05 09:01 | 1.45312 | 71.35371 | 37868 ft | 465 kts | 215° |
| 2026-05-05 09:01 | 1.40083 | 71.31548 | 37867 ft | 465 kts | 215° |
| 2026-05-05 09:02 | 1.34875 | 71.27743 | 37870 ft | 464 kts | 215° |
| 2026-05-05 09:02 | 1.29667 | 71.23938 | 37877 ft | 465 kts | 215° |
| 2026-05-05 09:03 | 1.24440 | 71.20119 | 37869 ft | 464 kts | 215° |
| 2026-05-05 09:03 | 1.19233 | 71.16316 | 37866 ft | 465 kts | 215° |
| 2026-05-05 09:04 | 1.14010 | 71.12500 | 37866 ft | 464 kts | 215° |
| 2026-05-05 09:04 | 1.08795 | 71.08691 | 37867 ft | 464 kts | 215° |
| 2026-05-05 09:05 | 1.03586 | 71.04887 | 37870 ft | 464 kts | 215° |
| 2026-05-05 09:05 | 0.98365 | 71.01073 | 37874 ft | 464 kts | 215° |
| 2026-05-05 09:06 | 0.93182 | 70.97288 | 37871 ft | 464 kts | 215° |
| 2026-05-05 09:06 | 0.87976 | 70.93485 | 37872 ft | 464 kts | 215° |
| 2026-05-05 09:07 | 0.82761 | 70.89676 | 37860 ft | 464 kts | 215° |
| 2026-05-05 09:07 | 0.77547 | 70.85869 | 37872 ft | 465 kts | 215° |
| 2026-05-05 09:08 | 0.72320 | 70.82052 | 37868 ft | 464 kts | 215° |
| 2026-05-05 09:08 | 0.67108 | 70.78245 | 37867 ft | 464 kts | 215° |
| 2026-05-05 09:09 | 0.61923 | 70.74459 | 37859 ft | 463 kts | 215° |
| 2026-05-05 09:09 | 0.56721 | 70.70661 | 37857 ft | 463 kts | 215° |
| 2026-05-05 09:10 | 0.51519 | 70.66862 | 37861 ft | 463 kts | 215° |
| 2026-05-05 09:10 | 0.46312 | 70.63060 | 37865 ft | 463 kts | 215° |
| 2026-05-05 09:11 | 0.41112 | 70.59263 | 37859 ft | 463 kts | 215° |
| 2026-05-05 09:11 | 0.35900 | 70.55458 | 37849 ft | 463 kts | 215° |
| 2026-05-05 09:12 | 0.30690 | 70.51654 | 37862 ft | 464 kts | 215° |
| 2026-05-05 09:12 | 0.25474 | 70.47846 | 37869 ft | 464 kts | 215° |
| 2026-05-05 09:13 | 0.20262 | 70.44040 | 37872 ft | 465 kts | 215° |
| 2026-05-05 09:13 | 0.15026 | 70.40217 | 37877 ft | 465 kts | 215° |
| 2026-05-05 09:14 | 0.09802 | 70.36403 | 37862 ft | 466 kts | 215° |
| 2026-05-05 09:14 | 0.04568 | 70.32582 | 37870 ft | 466 kts | 215° |
| 2026-05-05 09:15 | -0.00641 | 70.28779 | 37870 ft | 466 kts | 215° |
| 2026-05-05 09:15 | -0.05880 | 70.24953 | 37866 ft | 466 kts | 215° |
| 2026-05-05 09:16 | -0.11115 | 70.21131 | 37870 ft | 466 kts | 215° |
| 2026-05-05 09:16 | -0.16345 | 70.17313 | 37865 ft | 466 kts | 215° |
| 2026-05-05 09:17 | -0.21568 | 70.13500 | 37865 ft | 466 kts | 215° |
| 2026-05-05 09:17 | -0.26803 | 70.09678 | 37871 ft | 466 kts | 215° |
| 2026-05-05 09:18 | -0.32039 | 70.05854 | 37873 ft | 466 kts | 215° |
| 2026-05-05 09:18 | -0.37283 | 70.02026 | 37867 ft | 466 kts | 215° |
| 2026-05-05 09:19 | -0.42517 | 69.98204 | 37874 ft | 466 kts | 215° |
| 2026-05-05 09:19 | -0.47727 | 69.94400 | 37862 ft | 465 kts | 215° |
| 2026-05-05 09:20 | -0.52935 | 69.90597 | 37866 ft | 465 kts | 215° |
| 2026-05-05 09:20 | -0.58168 | 69.86776 | 37864 ft | 465 kts | 215° |
| 2026-05-05 09:21 | -0.63390 | 69.82962 | 37869 ft | 465 kts | 215° |
| 2026-05-05 09:21 | -0.68613 | 69.79148 | 37871 ft | 465 kts | 215° |
| 2026-05-05 09:22 | -0.73825 | 69.75343 | 37868 ft | 465 kts | 215° |
| 2026-05-05 09:22 | -0.79065 | 69.71516 | 37867 ft | 465 kts | 215° |
| 2026-05-05 09:23 | -0.84295 | 69.67696 | 37858 ft | 465 kts | 215° |
| 2026-05-05 09:23 | -0.89485 | 69.63906 | 37869 ft | 465 kts | 215° |
| 2026-05-05 09:24 | -0.94706 | 69.60093 | 37871 ft | 465 kts | 215° |
| 2026-05-05 09:24 | -0.99925 | 69.56281 | 37864 ft | 464 kts | 215° |
| 2026-05-05 09:25 | -1.05158 | 69.52458 | 37864 ft | 464 kts | 215° |
| 2026-05-05 09:25 | -1.10350 | 69.48666 | 37871 ft | 464 kts | 215° |
| 2026-05-05 09:26 | -1.15575 | 69.44849 | 37869 ft | 464 kts | 215° |
| 2026-05-05 09:26 | -1.20795 | 69.41036 | 37866 ft | 464 kts | 215° |
| 2026-05-05 09:27 | -1.25967 | 69.37258 | 37868 ft | 463 kts | 215° |
| 2026-05-05 09:27 | -1.31168 | 69.33458 | 37867 ft | 463 kts | 215° |
| 2026-05-05 09:28 | -1.36364 | 69.29662 | 37858 ft | 463 kts | 215° |
| 2026-05-05 09:28 | -1.41568 | 69.25860 | 37863 ft | 463 kts | 215° |
| 2026-05-05 09:29 | -1.45894 | 69.22698 | 37864 ft | 463 kts | 215° |
| 2026-05-05 09:29 | -1.51101 | 69.18894 | 37861 ft | 463 kts | 215° |
| 2026-05-05 09:30 | -1.56309 | 69.15087 | 37866 ft | 463 kts | 215° |
| 2026-05-05 09:30 | -1.61526 | 69.11275 | 37862 ft | 463 kts | 215° |
| 2026-05-05 09:31 | -1.66715 | 69.07482 | 37862 ft | 463 kts | 215° |
| 2026-05-05 09:31 | -1.71906 | 69.03687 | 37858 ft | 463 kts | 215° |
| 2026-05-05 09:32 | -1.77109 | 68.99885 | 37854 ft | 463 kts | 215° |
| 2026-05-05 09:32 | -1.82316 | 68.96079 | 37864 ft | 463 kts | 214° |
| 2026-05-05 09:33 | -1.87520 | 68.92273 | 37860 ft | 463 kts | 215° |
| 2026-05-05 09:33 | -1.92724 | 68.88469 | 37870 ft | 463 kts | 215° |
| 2026-05-05 09:34 | -1.97933 | 68.84659 | 37861 ft | 463 kts | 214° |
| 2026-05-05 09:34 | -2.03127 | 68.80862 | 37866 ft | 463 kts | 215° |
| 2026-05-05 09:35 | -2.08327 | 68.77059 | 37860 ft | 463 kts | 215° |
| 2026-05-05 09:35 | -2.16110 | 68.71367 | 37854 ft | 464 kts | 215° |
| 2026-05-05 09:36 | -2.21326 | 68.67552 | 37857 ft | 464 kts | 215° |
| 2026-05-05 09:36 | -2.26532 | 68.63743 | 37855 ft | 464 kts | 215° |
| 2026-05-05 09:37 | -2.31749 | 68.59927 | 37855 ft | 464 kts | 215° |
| 2026-05-05 09:37 | -2.36957 | 68.56116 | 37860 ft | 465 kts | 215° |
| 2026-05-05 09:38 | -2.42184 | 68.52291 | 37859 ft | 465 kts | 215° |
| 2026-05-05 09:38 | -2.47411 | 68.48466 | 37864 ft | 465 kts | 215° |
| 2026-05-05 09:39 | -2.52634 | 68.44643 | 37857 ft | 465 kts | 215° |
| 2026-05-05 09:39 | -2.57830 | 68.40841 | 37857 ft | 465 kts | 215° |
| 2026-05-05 09:40 | -2.63058 | 68.37014 | 37865 ft | 466 kts | 216° |
| 2026-05-05 09:40 | -2.68289 | 68.33185 | 37857 ft | 466 kts | 216° |
| 2026-05-05 09:41 | -2.73521 | 68.29355 | 37861 ft | 467 kts | 216° |
| 2026-05-05 09:41 | -2.78765 | 68.25515 | 37863 ft | 467 kts | 216° |
| 2026-05-05 09:42 | -2.84007 | 68.21675 | 37863 ft | 467 kts | 216° |
| 2026-05-05 09:42 | -2.89257 | 68.17831 | 37862 ft | 467 kts | 216° |
| 2026-05-05 09:43 | -2.94510 | 68.13983 | 37859 ft | 466 kts | 216° |
| 2026-05-05 09:43 | -2.99702 | 68.10179 | 37858 ft | 466 kts | 216° |
| 2026-05-05 09:44 | -3.04939 | 68.06342 | 37859 ft | 466 kts | 216° |
| 2026-05-05 09:44 | -3.10105 | 68.02558 | 37860 ft | 465 kts | 215° |
| 2026-05-05 09:45 | -3.15048 | 67.98697 | 37853 ft | 466 kts | 222° |
| 2026-05-05 09:45 | -3.19829 | 67.94312 | 37859 ft | 465 kts | 221° |
| 2026-05-05 09:46 | -3.24619 | 67.89952 | 37856 ft | 465 kts | 221° |
| 2026-05-05 09:46 | -3.29409 | 67.85592 | 37855 ft | 465 kts | 221° |
| 2026-05-05 09:47 | -3.34164 | 67.81261 | 37859 ft | 465 kts | 221° |
| 2026-05-05 09:47 | -3.38940 | 67.76910 | 37858 ft | 465 kts | 221° |
| 2026-05-05 09:48 | -3.43733 | 67.72542 | 37860 ft | 465 kts | 221° |
| 2026-05-05 09:48 | -3.48520 | 67.68179 | 37858 ft | 465 kts | 221° |
| 2026-05-05 09:49 | -3.53277 | 67.63843 | 37858 ft | 465 kts | 221° |
| 2026-05-05 09:49 | -3.58059 | 67.59484 | 37861 ft | 464 kts | 221° |
| 2026-05-05 09:50 | -3.62836 | 67.55129 | 37863 ft | 464 kts | 221° |
| 2026-05-05 09:50 | -3.67623 | 67.50763 | 37861 ft | 464 kts | 221° |
| 2026-05-05 09:51 | -3.72396 | 67.46409 | 37860 ft | 463 kts | 221° |
| 2026-05-05 09:51 | -3.77127 | 67.42094 | 37860 ft | 463 kts | 221° |
| 2026-05-05 09:52 | -3.81915 | 67.37726 | 37857 ft | 463 kts | 221° |
| 2026-05-05 09:52 | -3.86645 | 67.33409 | 37862 ft | 462 kts | 221° |
| 2026-05-05 09:53 | -3.91395 | 67.29074 | 37853 ft | 462 kts | 221° |
| 2026-05-05 09:53 | -3.96144 | 67.24740 | 37858 ft | 462 kts | 221° |
| 2026-05-05 09:54 | -4.00893 | 67.20404 | 37855 ft | 461 kts | 221° |
| 2026-05-05 09:54 | -4.05635 | 67.16074 | 37851 ft | 462 kts | 221° |
| 2026-05-05 09:55 | -4.10381 | 67.11740 | 37837 ft | 462 kts | 221° |
| 2026-05-05 09:55 | -4.15128 | 67.07404 | 37845 ft | 462 kts | 221° |
| 2026-05-05 09:56 | -4.19881 | 67.03062 | 37833 ft | 462 kts | 221° |
| 2026-05-05 09:56 | -4.24611 | 66.98740 | 37843 ft | 463 kts | 221° |
| 2026-05-05 09:57 | -4.29373 | 66.94389 | 37847 ft | 464 kts | 221° |
| 2026-05-05 09:57 | -4.34152 | 66.90021 | 37849 ft | 464 kts | 221° |
| 2026-05-05 09:58 | -4.38919 | 66.85663 | 37855 ft | 465 kts | 221° |
| 2026-05-05 09:58 | -4.43701 | 66.81290 | 37861 ft | 465 kts | 221° |
| 2026-05-05 09:59 | -4.48470 | 66.76928 | 37863 ft | 462 kts | 221° |
| 2026-05-05 09:59 | -4.53227 | 66.72577 | 37856 ft | 462 kts | 221° |
| 2026-05-05 10:00 | -4.57968 | 66.68240 | 37853 ft | 461 kts | 221° |
| 2026-05-05 10:00 | -4.62697 | 66.63913 | 37857 ft | 460 kts | 221° |
| 2026-05-05 10:01 | -4.67395 | 66.59613 | 37859 ft | 460 kts | 221° |
| 2026-05-05 10:01 | -4.72125 | 66.55283 | 37855 ft | 460 kts | 221° |
| 2026-05-05 10:02 | -4.76855 | 66.50952 | 37852 ft | 459 kts | 221° |
| 2026-05-05 10:02 | -4.81573 | 66.46632 | 37848 ft | 459 kts | 221° |
| 2026-05-05 10:03 | -4.86294 | 66.42308 | 37844 ft | 459 kts | 221° |
| 2026-05-05 10:03 | -4.90979 | 66.38016 | 37853 ft | 459 kts | 221° |
| 2026-05-05 10:04 | -4.95693 | 66.33697 | 37855 ft | 459 kts | 221° |
| 2026-05-05 10:04 | -5.00417 | 66.29367 | 37849 ft | 459 kts | 221° |
| 2026-05-05 10:05 | -5.05138 | 66.25040 | 37850 ft | 460 kts | 221° |
| 2026-05-05 10:05 | -5.09859 | 66.20712 | 37856 ft | 460 kts | 221° |
| 2026-05-05 10:06 | -5.14555 | 66.16405 | 37851 ft | 460 kts | 221° |
| 2026-05-05 10:06 | -5.19288 | 66.12064 | 37859 ft | 460 kts | 221° |
| 2026-05-05 10:07 | -5.24006 | 66.07736 | 37860 ft | 461 kts | 221° |
| 2026-05-05 10:07 | -5.27943 | 66.04123 | 37863 ft | 461 kts | 221° |
| 2026-05-05 10:08 | -5.33481 | 65.99041 | 37863 ft | 461 kts | 221° |
| 2026-05-05 10:08 | -5.38217 | 65.94693 | 37862 ft | 461 kts | 221° |
| 2026-05-05 10:09 | -5.42953 | 65.90344 | 37860 ft | 461 kts | 221° |
| 2026-05-05 10:09 | -5.47684 | 65.85998 | 37853 ft | 462 kts | 221° |
| 2026-05-05 10:10 | -5.52413 | 65.81655 | 37850 ft | 462 kts | 221° |
| 2026-05-05 10:10 | -5.57141 | 65.77310 | 37849 ft | 462 kts | 221° |
| 2026-05-05 10:11 | -5.61882 | 65.72952 | 37852 ft | 463 kts | 221° |
| 2026-05-05 10:11 | -5.66643 | 65.68576 | 37839 ft | 464 kts | 221° |
| 2026-05-05 10:12 | -5.71399 | 65.64203 | 37850 ft | 464 kts | 221° |
| 2026-05-05 10:12 | -5.76170 | 65.59816 | 37844 ft | 465 kts | 221° |
| 2026-05-05 10:13 | -5.80944 | 65.55424 | 37850 ft | 466 kts | 221° |
| 2026-05-05 10:13 | -5.85699 | 65.51049 | 37859 ft | 466 kts | 221° |
| 2026-05-05 10:14 | -5.90485 | 65.46645 | 37860 ft | 467 kts | 222° |
| 2026-05-05 10:14 | -5.95274 | 65.42236 | 37863 ft | 468 kts | 222° |
| 2026-05-05 10:15 | -6.00065 | 65.37825 | 37858 ft | 466 kts | 222° |
| 2026-05-05 10:15 | -6.04852 | 65.33417 | 37861 ft | 467 kts | 222° |
| 2026-05-05 10:16 | -6.09636 | 65.29010 | 37860 ft | 467 kts | 222° |
| 2026-05-05 10:16 | -6.14427 | 65.24595 | 37862 ft | 467 kts | 222° |
| 2026-05-05 10:17 | -6.19201 | 65.20194 | 37866 ft | 467 kts | 222° |
| 2026-05-05 10:17 | -6.23216 | 65.16493 | 37871 ft | 467 kts | 222° |
| 2026-05-05 10:18 | -6.28004 | 65.12078 | 37867 ft | 468 kts | 222° |
| 2026-05-05 10:18 | -6.32809 | 65.07646 | 37875 ft | 468 kts | 222° |
| 2026-05-05 10:19 | -6.37568 | 65.03255 | 37873 ft | 467 kts | 222° |
| 2026-05-05 10:19 | -6.42364 | 64.98829 | 37864 ft | 467 kts | 223° |
| 2026-05-05 10:20 | -6.47161 | 64.94400 | 37868 ft | 467 kts | 223° |
| 2026-05-05 10:20 | -6.51951 | 64.89978 | 37868 ft | 467 kts | 223° |
| 2026-05-05 10:21 | -6.56730 | 64.85563 | 37870 ft | 467 kts | 223° |
| 2026-05-05 10:21 | -6.61513 | 64.81144 | 37869 ft | 466 kts | 223° |
| 2026-05-05 10:22 | -6.66263 | 64.76755 | 37869 ft | 466 kts | 223° |
| 2026-05-05 10:22 | -6.71029 | 64.72349 | 37870 ft | 465 kts | 223° |
| 2026-05-05 10:23 | -6.75798 | 64.67939 | 37868 ft | 465 kts | 223° |
| 2026-05-05 10:23 | -6.80563 | 64.63532 | 37865 ft | 464 kts | 223° |
| 2026-05-05 10:24 | -6.85318 | 64.59132 | 37860 ft | 464 kts | 223° |
| 2026-05-05 10:24 | -6.90073 | 64.54732 | 37859 ft | 464 kts | 223° |
| 2026-05-05 10:25 | -6.94785 | 64.50370 | 37855 ft | 463 kts | 223° |
| 2026-05-05 10:25 | -6.99526 | 64.45980 | 37856 ft | 463 kts | 223° |
| 2026-05-05 10:26 | -7.04260 | 64.41595 | 37847 ft | 462 kts | 223° |
| 2026-05-05 10:26 | -7.08993 | 64.37210 | 37851 ft | 462 kts | 223° |
| 2026-05-05 10:27 | -7.13724 | 64.32825 | 37850 ft | 462 kts | 223° |
| 2026-05-05 10:27 | -7.18448 | 64.28445 | 37852 ft | 462 kts | 223° |
| 2026-05-05 10:28 | -7.23182 | 64.24056 | 37852 ft | 462 kts | 223° |
| 2026-05-05 10:28 | -7.27914 | 64.19666 | 37856 ft | 462 kts | 223° |
| 2026-05-05 10:29 | -7.32621 | 64.15299 | 37860 ft | 463 kts | 223° |
| 2026-05-05 10:29 | -7.37352 | 64.10907 | 37856 ft | 463 kts | 223° |
| 2026-05-05 10:30 | -7.42093 | 64.06505 | 37867 ft | 463 kts | 223° |
| 2026-05-05 10:30 | -7.46839 | 64.02098 | 37865 ft | 464 kts | 223° |
| 2026-05-05 10:31 | -7.51584 | 63.97689 | 37867 ft | 464 kts | 223° |
| 2026-05-05 10:31 | -7.56341 | 63.93269 | 37866 ft | 464 kts | 223° |
| 2026-05-05 10:32 | -7.61061 | 63.88881 | 37865 ft | 464 kts | 223° |
| 2026-05-05 10:32 | -7.65802 | 63.84472 | 37866 ft | 463 kts | 223° |
| 2026-05-05 10:33 | -7.70533 | 63.80071 | 37865 ft | 464 kts | 223° |
| 2026-05-05 10:33 | -7.75283 | 63.75651 | 37867 ft | 464 kts | 223° |
| 2026-05-05 10:34 | -7.80018 | 63.71244 | 37868 ft | 464 kts | 223° |
| 2026-05-05 10:34 | -7.84758 | 63.66829 | 37864 ft | 464 kts | 223° |
| 2026-05-05 10:35 | -7.89513 | 63.62400 | 37869 ft | 464 kts | 223° |
| 2026-05-05 10:35 | -7.94253 | 63.57983 | 37871 ft | 464 kts | 223° |
| 2026-05-05 10:36 | -7.98998 | 63.53561 | 37869 ft | 464 kts | 223° |
| 2026-05-05 10:36 | -8.03733 | 63.49147 | 37868 ft | 464 kts | 223° |
| 2026-05-05 10:37 | -8.08474 | 63.44725 | 37868 ft | 464 kts | 223° |
| 2026-05-05 10:37 | -8.13193 | 63.40323 | 37866 ft | 464 kts | 223° |
| 2026-05-05 10:38 | -8.17926 | 63.35905 | 37872 ft | 465 kts | 223° |
| 2026-05-05 10:38 | -8.22680 | 63.31467 | 37869 ft | 465 kts | 223° |
| 2026-05-05 10:39 | -8.27430 | 63.27032 | 37869 ft | 465 kts | 223° |
| 2026-05-05 10:39 | -8.32182 | 63.22591 | 37869 ft | 465 kts | 223° |
| 2026-05-05 10:40 | -8.36937 | 63.18148 | 37868 ft | 465 kts | 223° |
| 2026-05-05 10:40 | -8.41682 | 63.13712 | 37870 ft | 465 kts | 223° |
| 2026-05-05 10:41 | -8.46422 | 63.09279 | 37870 ft | 465 kts | 223° |
| 2026-05-05 10:41 | -8.51172 | 63.04835 | 37869 ft | 465 kts | 223° |
| 2026-05-05 10:42 | -8.58287 | 62.98176 | 37872 ft | 465 kts | 223° |
| 2026-05-05 10:43 | -8.63008 | 62.93756 | 37868 ft | 465 kts | 223° |
| 2026-05-05 10:43 | -8.67754 | 62.89310 | 37870 ft | 465 kts | 223° |
| 2026-05-05 10:44 | -8.72494 | 62.84869 | 37871 ft | 463 kts | 223° |
| 2026-05-05 10:44 | -8.77222 | 62.80436 | 37871 ft | 463 kts | 223° |
| 2026-05-05 10:45 | -8.81937 | 62.76015 | 37868 ft | 461 kts | 223° |
| 2026-05-05 10:45 | -8.86637 | 62.71606 | 37869 ft | 460 kts | 223° |
| 2026-05-05 10:46 | -8.91318 | 62.67214 | 37871 ft | 459 kts | 223° |
| 2026-05-05 10:46 | -8.95994 | 62.62825 | 37872 ft | 458 kts | 223° |
| 2026-05-05 10:47 | -9.00659 | 62.58444 | 37869 ft | 458 kts | 223° |
| 2026-05-05 10:47 | -9.05327 | 62.54059 | 37874 ft | 457 kts | 223° |
| 2026-05-05 10:48 | -9.09964 | 62.49701 | 37871 ft | 457 kts | 223° |
| 2026-05-05 10:48 | -9.14619 | 62.45325 | 37873 ft | 456 kts | 223° |
| 2026-05-05 10:49 | -9.19260 | 62.40960 | 37869 ft | 456 kts | 223° |
| 2026-05-05 10:49 | -9.23905 | 62.36590 | 37872 ft | 455 kts | 223° |
| 2026-05-05 10:50 | -9.28549 | 62.32219 | 37872 ft | 455 kts | 223° |
| 2026-05-05 10:50 | -9.33173 | 62.27866 | 37873 ft | 454 kts | 223° |
| 2026-05-05 10:51 | -9.37798 | 62.23509 | 37876 ft | 453 kts | 223° |
| 2026-05-05 10:51 | -9.42384 | 62.19188 | 37868 ft | 453 kts | 223° |
| 2026-05-05 10:52 | -9.46999 | 62.14838 | 37872 ft | 453 kts | 223° |
| 2026-05-05 10:52 | -9.51601 | 62.10498 | 37873 ft | 452 kts | 223° |
| 2026-05-05 10:53 | -9.56202 | 62.06158 | 37869 ft | 452 kts | 223° |
| 2026-05-05 10:53 | -9.60804 | 62.01815 | 37871 ft | 451 kts | 223° |
| 2026-05-05 10:54 | -9.65396 | 61.97480 | 37875 ft | 451 kts | 223° |
| 2026-05-05 10:54 | -9.69992 | 61.93140 | 37875 ft | 451 kts | 223° |
| 2026-05-05 10:55 | -9.74555 | 61.88829 | 37862 ft | 451 kts | 223° |
| 2026-05-05 10:55 | -9.79148 | 61.84490 | 37863 ft | 451 kts | 223° |
| 2026-05-05 10:56 | -9.83742 | 61.80147 | 37868 ft | 451 kts | 223° |
| 2026-05-05 10:56 | -9.88344 | 61.75795 | 37872 ft | 451 kts | 223° |
| 2026-05-05 10:57 | -9.92938 | 61.71449 | 37878 ft | 452 kts | 223° |
| 2026-05-05 10:57 | -9.97537 | 61.67108 | 37887 ft | 452 kts | 221° |
| 2026-05-05 10:58 | -10.02562 | 61.63339 | 37885 ft | 453 kts | 211° |
| 2026-05-05 10:58 | -10.08067 | 61.60221 | 37888 ft | 453 kts | 210° |
| 2026-05-05 10:59 | -10.13567 | 61.57118 | 37889 ft | 453 kts | 210° |
| 2026-05-05 10:59 | -10.19079 | 61.54007 | 37879 ft | 453 kts | 210° |
| 2026-05-05 11:00 | -10.24579 | 61.50905 | 37888 ft | 451 kts | 210° |
| 2026-05-05 11:00 | -10.30077 | 61.47804 | 37886 ft | 452 kts | 210° |
| 2026-05-05 11:01 | -10.35579 | 61.44699 | 37883 ft | 451 kts | 210° |
| 2026-05-05 11:01 | -10.41066 | 61.41600 | 37885 ft | 451 kts | 210° |
| 2026-05-05 11:02 | -10.46507 | 61.38526 | 37885 ft | 450 kts | 210° |
| 2026-05-05 11:02 | -10.51986 | 61.35430 | 37887 ft | 450 kts | 210° |
| 2026-05-05 11:03 | -10.57456 | 61.32338 | 37889 ft | 450 kts | 210° |
| 2026-05-05 11:03 | -10.62921 | 61.29247 | 37889 ft | 449 kts | 210° |
| 2026-05-05 11:04 | -10.68370 | 61.26164 | 37890 ft | 448 kts | 210° |
| 2026-05-05 11:04 | -10.73805 | 61.23087 | 37891 ft | 449 kts | 210° |
| 2026-05-05 11:05 | -10.79252 | 61.20002 | 37890 ft | 448 kts | 210° |
| 2026-05-05 11:05 | -10.84711 | 61.16910 | 37889 ft | 448 kts | 211° |
| 2026-05-05 11:06 | -10.89239 | 61.14344 | 37891 ft | 448 kts | 211° |
| 2026-05-05 11:06 | -10.94684 | 61.11256 | 37893 ft | 448 kts | 210° |
| 2026-05-05 11:07 | -11.00119 | 61.08174 | 37891 ft | 447 kts | 211° |
| 2026-05-05 11:07 | -11.05545 | 61.05094 | 37890 ft | 447 kts | 211° |
| 2026-05-05 11:08 | -11.10992 | 61.02002 | 37890 ft | 447 kts | 211° |
| 2026-05-05 11:08 | -11.16422 | 60.98919 | 37891 ft | 446 kts | 211° |
| 2026-05-05 11:09 | -11.21847 | 60.95836 | 37894 ft | 446 kts | 211° |
| 2026-05-05 11:09 | -11.27226 | 60.92778 | 37897 ft | 446 kts | 211° |
| 2026-05-05 11:10 | -11.32646 | 60.89696 | 37900 ft | 445 kts | 211° |
| 2026-05-05 11:10 | -11.38043 | 60.86625 | 37896 ft | 445 kts | 211° |
| 2026-05-05 11:11 | -11.43472 | 60.83536 | 37903 ft | 446 kts | 211° |
| 2026-05-05 11:11 | -11.48890 | 60.80450 | 37894 ft | 446 kts | 211° |
| 2026-05-05 11:12 | -11.54306 | 60.77365 | 37896 ft | 446 kts | 211° |
| 2026-05-05 11:12 | -11.59728 | 60.74273 | 37898 ft | 446 kts | 211° |
| 2026-05-05 11:13 | -11.65159 | 60.71176 | 37898 ft | 446 kts | 211° |
| 2026-05-05 11:13 | -11.70572 | 60.68087 | 37901 ft | 446 kts | 211° |
| 2026-05-05 11:14 | -11.75951 | 60.65018 | 37904 ft | 446 kts | 211° |
| 2026-05-05 11:14 | -11.81372 | 60.61923 | 37901 ft | 446 kts | 211° |
| 2026-05-05 11:15 | -11.86780 | 60.58834 | 37902 ft | 446 kts | 211° |
| 2026-05-05 11:15 | -11.92215 | 60.55727 | 37901 ft | 447 kts | 211° |
| 2026-05-05 11:16 | -11.97635 | 60.52629 | 37900 ft | 445 kts | 211° |
| 2026-05-05 11:16 | -12.03046 | 60.49533 | 37906 ft | 447 kts | 211° |
| 2026-05-05 11:17 | -12.08483 | 60.46421 | 37902 ft | 447 kts | 211° |
| 2026-05-05 11:17 | -12.13903 | 60.43318 | 37905 ft | 445 kts | 211° |
| 2026-05-05 11:18 | -12.19309 | 60.40220 | 37901 ft | 446 kts | 211° |
| 2026-05-05 11:18 | -12.24735 | 60.37110 | 37908 ft | 446 kts | 211° |
| 2026-05-05 11:19 | -12.30117 | 60.34025 | 37909 ft | 446 kts | 211° |
| 2026-05-05 11:19 | -12.35537 | 60.30915 | 37907 ft | 446 kts | 211° |
| 2026-05-05 11:20 | -12.40953 | 60.27806 | 37908 ft | 446 kts | 211° |
| 2026-05-05 11:20 | -12.46374 | 60.24694 | 37903 ft | 447 kts | 211° |
| 2026-05-05 11:21 | -12.51791 | 60.21583 | 37908 ft | 447 kts | 211° |
| 2026-05-05 11:21 | -12.57210 | 60.18469 | 37911 ft | 447 kts | 211° |
| 2026-05-05 11:22 | -12.62645 | 60.15342 | 37916 ft | 447 kts | 211° |
| 2026-05-05 11:22 | -12.68037 | 60.12240 | 37916 ft | 448 kts | 211° |
| 2026-05-05 11:23 | -12.73502 | 60.09095 | 37923 ft | 448 kts | 211° |
| 2026-05-05 11:23 | -12.78900 | 60.05986 | 37919 ft | 448 kts | 211° |
| 2026-05-05 11:24 | -12.84341 | 60.02851 | 37930 ft | 448 kts | 211° |
| 2026-05-05 11:24 | -12.89788 | 59.99711 | 37917 ft | 449 kts | 211° |
| 2026-05-05 11:25 | -12.95237 | 59.96569 | 37919 ft | 449 kts | 212° |
| 2026-05-05 11:25 | -13.00652 | 59.93444 | 37926 ft | 449 kts | 212° |
| 2026-05-05 11:26 | -13.06091 | 59.90304 | 37929 ft | 449 kts | 212° |
| 2026-05-05 11:26 | -13.11531 | 59.87162 | 37923 ft | 449 kts | 212° |
| 2026-05-05 11:27 | -13.16970 | 59.84018 | 37922 ft | 448 kts | 212° |
| 2026-05-05 11:27 | -13.22402 | 59.80877 | 37927 ft | 448 kts | 212° |
| 2026-05-05 11:28 | -13.27845 | 59.77729 | 37926 ft | 448 kts | 212° |
| 2026-05-05 11:28 | -13.33271 | 59.74589 | 37933 ft | 447 kts | 212° |
| 2026-05-05 11:29 | -13.38688 | 59.71452 | 37924 ft | 447 kts | 212° |
| 2026-05-05 11:29 | -13.44078 | 59.68329 | 37921 ft | 447 kts | 212° |
| 2026-05-05 11:30 | -13.49485 | 59.65195 | 37927 ft | 446 kts | 212° |
| 2026-05-05 11:30 | -13.54891 | 59.62059 | 37932 ft | 445 kts | 212° |
| 2026-05-05 11:31 | -13.60280 | 59.58932 | 37928 ft | 445 kts | 212° |
| 2026-05-05 11:31 | -13.65673 | 59.55801 | 37926 ft | 444 kts | 212° |
| 2026-05-05 11:32 | -13.71059 | 59.52672 | 37936 ft | 444 kts | 212° |
| 2026-05-05 11:32 | -13.76429 | 59.49552 | 37931 ft | 443 kts | 212° |
| 2026-05-05 11:33 | -13.81795 | 59.46432 | 37929 ft | 443 kts | 212° |
| 2026-05-05 11:33 | -13.87030 | 59.43137 | 37922 ft | 439 kts | 219° |
| 2026-05-05 11:34 | -13.91905 | 59.39434 | 37920 ft | 439 kts | 219° |
| 2026-05-05 11:34 | -13.96842 | 59.35716 | 37920 ft | 438 kts | 219° |
| 2026-05-05 11:35 | -14.01755 | 59.32010 | 37941 ft | 438 kts | 219° |
| 2026-05-05 11:35 | -14.06664 | 59.28303 | 37939 ft | 437 kts | 219° |
| 2026-05-05 11:36 | -14.11569 | 59.24596 | 37921 ft | 437 kts | 219° |
| 2026-05-05 11:36 | -14.16475 | 59.20886 | 37919 ft | 437 kts | 219° |
| 2026-05-05 11:37 | -14.21368 | 59.17182 | 37925 ft | 436 kts | 219° |
| 2026-05-05 11:37 | -14.26268 | 59.13472 | 37928 ft | 436 kts | 219° |
| 2026-05-05 11:38 | -14.31157 | 59.09768 | 37932 ft | 436 kts | 219° |
| 2026-05-05 11:38 | -14.36039 | 59.06067 | 37931 ft | 436 kts | 219° |
| 2026-05-05 11:39 | -14.40931 | 59.02356 | 37929 ft | 436 kts | 219° |
| 2026-05-05 11:39 | -14.45786 | 58.98672 | 37931 ft | 436 kts | 219° |
| 2026-05-05 11:40 | -14.50668 | 58.94965 | 37932 ft | 436 kts | 219° |
| 2026-05-05 11:40 | -14.55563 | 58.91246 | 37934 ft | 436 kts | 219° |
| 2026-05-05 11:41 | -14.60438 | 58.87540 | 37934 ft | 435 kts | 219° |
| 2026-05-05 11:41 | -14.65303 | 58.83840 | 37937 ft | 435 kts | 219° |
| 2026-05-05 11:42 | -14.70176 | 58.80131 | 37935 ft | 435 kts | 220° |
| 2026-05-05 11:42 | -14.75070 | 58.76404 | 37935 ft | 435 kts | 219° |
| 2026-05-05 11:43 | -14.79916 | 58.72712 | 37940 ft | 435 kts | 219° |
| 2026-05-05 11:43 | -14.84794 | 58.68993 | 37939 ft | 435 kts | 219° |
| 2026-05-05 11:44 | -14.89665 | 58.65275 | 37932 ft | 434 kts | 219° |
| 2026-05-05 11:44 | -14.94530 | 58.61561 | 37931 ft | 434 kts | 220° |
| 2026-05-05 11:45 | -14.99396 | 58.57846 | 37932 ft | 434 kts | 220° |
| 2026-05-05 11:45 | -15.04261 | 58.54128 | 37933 ft | 435 kts | 219° |
| 2026-05-05 11:46 | -15.09126 | 58.50408 | 37935 ft | 435 kts | 219° |
| 2026-05-05 11:46 | -15.13982 | 58.46694 | 37938 ft | 435 kts | 219° |
| 2026-05-05 11:47 | -15.18846 | 58.42971 | 37938 ft | 435 kts | 219° |
| 2026-05-05 11:47 | -15.23710 | 58.39245 | 37942 ft | 435 kts | 219° |
| 2026-05-05 11:48 | -15.30984 | 58.33670 | 37943 ft | 435 kts | 219° |
| 2026-05-05 11:48 | -15.35850 | 58.29938 | 37941 ft | 436 kts | 219° |
| 2026-05-05 11:49 | -15.40737 | 58.26188 | 37945 ft | 436 kts | 219° |
| 2026-05-05 11:49 | -15.43961 | 58.23712 | 37946 ft | 436 kts | 219° |
| 2026-05-05 11:50 | -15.50461 | 58.18718 | 37953 ft | 436 kts | 219° |
| 2026-05-05 11:50 | -15.55331 | 58.14974 | 37950 ft | 436 kts | 220° |
| 2026-05-05 11:51 | -15.59382 | 58.11858 | 37951 ft | 436 kts | 220° |
| 2026-05-05 11:51 | -15.65048 | 58.07496 | 37952 ft | 436 kts | 220° |
| 2026-05-05 11:52 | -15.69123 | 58.04358 | 37955 ft | 435 kts | 220° |
| 2026-05-05 11:52 | -15.73992 | 58.00605 | 37955 ft | 435 kts | 220° |
| 2026-05-05 11:53 | -15.78830 | 57.96875 | 37957 ft | 435 kts | 220° |
| 2026-05-05 11:53 | -15.83683 | 57.93131 | 37953 ft | 435 kts | 220° |
| 2026-05-05 11:54 | -15.88547 | 57.89375 | 37951 ft | 435 kts | 220° |
| 2026-05-05 11:54 | -15.93403 | 57.85624 | 37957 ft | 435 kts | 220° |
| 2026-05-05 11:55 | -15.98262 | 57.81867 | 37953 ft | 435 kts | 220° |
| 2026-05-05 11:55 | -16.03112 | 57.78116 | 37958 ft | 434 kts | 220° |
| 2026-05-05 11:56 | -16.07956 | 57.74367 | 37958 ft | 434 kts | 220° |
| 2026-05-05 11:56 | -16.12797 | 57.70618 | 37959 ft | 434 kts | 220° |
| 2026-05-05 11:57 | -16.17652 | 57.66856 | 37959 ft | 434 kts | 220° |
| 2026-05-05 11:57 | -16.22499 | 57.63098 | 37964 ft | 434 kts | 220° |
| 2026-05-05 11:58 | -16.27302 | 57.59371 | 37965 ft | 433 kts | 220° |
| 2026-05-05 11:58 | -16.32140 | 57.55615 | 37964 ft | 433 kts | 220° |
| 2026-05-05 11:59 | -16.36966 | 57.51865 | 37968 ft | 433 kts | 220° |
| 2026-05-05 11:59 | -16.41793 | 57.48113 | 37971 ft | 433 kts | 220° |
| 2026-05-05 12:00 | -16.46618 | 57.44361 | 37967 ft | 432 kts | 220° |
| 2026-05-05 12:00 | -16.51412 | 57.40629 | 37967 ft | 432 kts | 220° |
| 2026-05-05 12:01 | -16.56237 | 57.36871 | 37964 ft | 432 kts | 220° |
| 2026-05-05 12:01 | -16.61052 | 57.33118 | 37970 ft | 432 kts | 220° |
| 2026-05-05 12:02 | -16.65858 | 57.29371 | 37970 ft | 431 kts | 220° |
| 2026-05-05 12:02 | -16.70673 | 57.25615 | 37971 ft | 431 kts | 220° |
| 2026-05-05 12:03 | -16.75474 | 57.21866 | 37966 ft | 431 kts | 220° |
| 2026-05-05 12:03 | -16.80241 | 57.18141 | 37977 ft | 431 kts | 220° |
| 2026-05-05 12:04 | -16.85037 | 57.14392 | 37985 ft | 430 kts | 220° |
| 2026-05-05 12:04 | -16.89842 | 57.10632 | 37974 ft | 430 kts | 220° |
| 2026-05-05 12:05 | -16.94629 | 57.06884 | 37977 ft | 430 kts | 220° |
| 2026-05-05 12:05 | -16.99413 | 57.03137 | 37975 ft | 430 kts | 220° |
| 2026-05-05 12:06 | -17.04174 | 56.99405 | 37975 ft | 430 kts | 220° |
| 2026-05-05 12:06 | -17.08957 | 56.95653 | 37976 ft | 429 kts | 220° |
| 2026-05-05 12:07 | -17.13734 | 56.91903 | 37978 ft | 429 kts | 220° |
| 2026-05-05 12:07 | -17.18502 | 56.88158 | 37978 ft | 429 kts | 220° |
| 2026-05-05 12:08 | -17.23287 | 56.84397 | 37984 ft | 429 kts | 220° |
| 2026-05-05 12:08 | -17.28063 | 56.80641 | 37983 ft | 429 kts | 220° |
| 2026-05-05 12:09 | -17.32838 | 56.76883 | 37981 ft | 429 kts | 221° |
| 2026-05-05 12:09 | -17.37577 | 56.73150 | 37985 ft | 429 kts | 220° |
| 2026-05-05 12:10 | -17.42354 | 56.69387 | 37986 ft | 429 kts | 221° |
| 2026-05-05 12:10 | -17.47099 | 56.65644 | 37988 ft | 429 kts | 220° |
| 2026-05-05 12:11 | -17.51882 | 56.61870 | 37989 ft | 429 kts | 221° |
| 2026-05-05 12:11 | -17.56650 | 56.58105 | 37992 ft | 429 kts | 220° |
| 2026-05-05 12:12 | -17.61403 | 56.54349 | 37990 ft | 429 kts | 220° |
| 2026-05-05 12:12 | -17.66170 | 56.50580 | 37992 ft | 429 kts | 221° |
| 2026-05-05 12:13 | -17.70935 | 56.46810 | 37992 ft | 428 kts | 221° |
| 2026-05-05 12:13 | -17.75694 | 56.43041 | 37995 ft | 428 kts | 220° |
| 2026-05-05 12:14 | -17.80446 | 56.39276 | 37993 ft | 428 kts | 221° |
| 2026-05-05 12:14 | -17.85182 | 56.35522 | 37999 ft | 428 kts | 221° |
| 2026-05-05 12:15 | -17.89928 | 56.31755 | 38000 ft | 428 kts | 221° |
| 2026-05-05 12:15 | -17.94684 | 56.27980 | 37997 ft | 428 kts | 221° |
| 2026-05-05 12:16 | -17.99435 | 56.24205 | 38000 ft | 428 kts | 221° |
| 2026-05-05 12:16 | -18.04195 | 56.20421 | 38002 ft | 428 kts | 221° |
| 2026-05-05 12:17 | -18.08935 | 56.16651 | 37999 ft | 428 kts | 221° |
| 2026-05-05 12:17 | -18.13676 | 56.12878 | 38002 ft | 428 kts | 221° |
| 2026-05-05 12:18 | -18.18424 | 56.09097 | 38002 ft | 427 kts | 221° |
| 2026-05-05 12:18 | -18.23360 | 56.05649 | 38004 ft | 430 kts | 215° |
| 2026-05-05 12:19 | -18.28475 | 56.02391 | 38004 ft | 430 kts | 215° |
| 2026-05-05 12:19 | -18.33598 | 55.99115 | 38006 ft | 429 kts | 215° |
| 2026-05-05 12:20 | -18.38700 | 55.95849 | 38006 ft | 429 kts | 215° |
| 2026-05-05 12:20 | -18.42939 | 55.93134 | 38005 ft | 429 kts | 215° |
| 2026-05-05 12:21 | -18.48873 | 55.89331 | 38007 ft | 429 kts | 215° |
| 2026-05-05 12:21 | -18.53961 | 55.86067 | 38010 ft | 428 kts | 215° |
| 2026-05-05 12:22 | -18.59053 | 55.82799 | 38016 ft | 428 kts | 215° |
| 2026-05-05 12:22 | -18.64148 | 55.79527 | 38008 ft | 428 kts | 215° |
| 2026-05-05 12:23 | -18.69233 | 55.76258 | 38008 ft | 428 kts | 215° |
| 2026-05-05 12:23 | -18.74311 | 55.72991 | 38012 ft | 427 kts | 215° |
| 2026-05-05 12:24 | -18.79366 | 55.69738 | 38009 ft | 427 kts | 215° |
| 2026-05-05 12:24 | -18.84439 | 55.66470 | 38011 ft | 427 kts | 215° |
| 2026-05-05 12:25 | -18.89522 | 55.63193 | 38006 ft | 427 kts | 215° |
| 2026-05-05 12:25 | -18.94568 | 55.59938 | 38010 ft | 427 kts | 215° |
| 2026-05-05 12:26 | -18.99725 | 55.56803 | 38004 ft | 430 kts | 209° |
| 2026-05-05 12:26 | -19.05379 | 55.54610 | 38009 ft | 436 kts | 199° |
| 2026-05-05 12:27 | -19.11381 | 55.53473 | 37923 ft | 441 kts | 193° |
| 2026-05-05 12:27 | -19.14431 | 55.53006 | 37526 ft | 443 kts | 193° |
| 2026-05-05 12:27 | -19.17465 | 55.52535 | 36808 ft | 447 kts | 193° |
| 2026-05-05 12:28 | -19.20599 | 55.52046 | 35830 ft | 455 kts | 193° |
| 2026-05-05 12:28 | -19.23721 | 55.51562 | 35052 ft | 458 kts | 193° |
| 2026-05-05 12:28 | -19.26891 | 55.51073 | 34220 ft | 462 kts | 193° |
| 2026-05-05 12:28 | -19.30089 | 55.50581 | 33289 ft | 466 kts | 193° |
| 2026-05-05 12:29 | -19.33299 | 55.50086 | 32504 ft | 465 kts | 192° |
| 2026-05-05 12:29 | -19.36511 | 55.49590 | 31649 ft | 466 kts | 192° |
| 2026-05-05 12:29 | -19.39719 | 55.49095 | 30876 ft | 466 kts | 191° |
| 2026-05-05 12:29 | -19.42917 | 55.48603 | 30331 ft | 460 kts | 191° |
| 2026-05-05 12:30 | -19.46070 | 55.48116 | 29654 ft | 456 kts | 191° |
| 2026-05-05 12:30 | -19.49198 | 55.47633 | 29041 ft | 450 kts | 191° |
| 2026-05-05 12:30 | -19.52273 | 55.47158 | 28425 ft | 445 kts | 190° |
| 2026-05-05 12:30 | -19.55320 | 55.46687 | 27821 ft | 440 kts | 190° |
| 2026-05-05 12:31 | -19.58327 | 55.46221 | 27215 ft | 435 kts | 190° |
| 2026-05-05 12:31 | -19.61312 | 55.45758 | 26592 ft | 432 kts | 190° |
| 2026-05-05 12:31 | -19.64278 | 55.45298 | 26001 ft | 428 kts | 189° |
| 2026-05-05 12:31 | -19.67218 | 55.44843 | 25409 ft | 425 kts | 189° |
| 2026-05-05 12:32 | -19.70137 | 55.44390 | 24795 ft | 422 kts | 189° |
| 2026-05-05 12:32 | -19.72991 | 55.43923 | 23210 ft | 429 kts | 192° |
| 2026-05-05 12:32 | -19.76022 | 55.43182 | 22625 ft | 431 kts | 192° |
| 2026-05-05 12:32 | -19.78909 | 55.42682 | 22558 ft | 412 kts | 187° |
| 2026-05-05 12:33 | -19.81589 | 55.42376 | 22312 ft | 400 kts | 186° |
| 2026-05-05 12:33 | -19.84417 | 55.42059 | 21772 ft | 395 kts | 187° |
| 2026-05-05 12:33 | -19.87111 | 55.41714 | 21202 ft | 392 kts | 187° |
| 2026-05-05 12:33 | -19.89807 | 55.41332 | 20565 ft | 391 kts | 188° |
| 2026-05-05 12:34 | -19.92495 | 55.40927 | 20047 ft | 388 kts | 188° |
| 2026-05-05 12:34 | -19.95163 | 55.40515 | 19449 ft | 386 kts | 188° |
| 2026-05-05 12:34 | -19.97813 | 55.40102 | 18887 ft | 385 kts | 188° |
| 2026-05-05 12:34 | -20.00471 | 55.39688 | 18314 ft | 384 kts | 188° |
| 2026-05-05 12:35 | -20.03126 | 55.39273 | 17659 ft | 383 kts | 188° |
| 2026-05-05 12:35 | -20.04862 | 55.39002 | 17322 ft | 381 kts | 187° |
| 2026-05-05 12:35 | -20.08352 | 55.38458 | 16514 ft | 379 kts | 187° |
| 2026-05-05 12:35 | -20.10955 | 55.38054 | 15948 ft | 376 kts | 187° |
| 2026-05-05 12:36 | -20.13549 | 55.37650 | 15368 ft | 375 kts | 186° |
| 2026-05-05 12:36 | -20.15268 | 55.37382 | 14967 ft | 375 kts | 186° |
| 2026-05-05 12:36 | -20.18717 | 55.36846 | 14218 ft | 374 kts | 186° |
| 2026-05-05 12:36 | -20.21261 | 55.36450 | 13611 ft | 374 kts | 186° |
| 2026-05-05 12:37 | -20.23000 | 55.36180 | 13250 ft | 371 kts | 186° |
| 2026-05-05 12:37 | -20.25543 | 55.35783 | 12682 ft | 368 kts | 186° |
| 2026-05-05 12:37 | -20.28065 | 55.35389 | 12121 ft | 366 kts | 186° |
| 2026-05-05 12:37 | -20.30552 | 55.35001 | 11542 ft | 365 kts | 186° |
| 2026-05-05 12:38 | -20.33066 | 55.34610 | 10978 ft | 363 kts | 186° |
| 2026-05-05 12:38 | -20.35561 | 55.34222 | 10396 ft | 362 kts | 186° |
| 2026-05-05 12:38 | -20.37994 | 55.33843 | 10176 ft | 342 kts | 186° |
| 2026-05-05 12:38 | -20.40279 | 55.33485 | 9994 ft | 322 kts | 186° |
| 2026-05-05 12:39 | -20.42442 | 55.33145 | 9793 ft | 305 kts | 186° |
| 2026-05-05 12:39 | -20.44516 | 55.32823 | 9315 ft | 297 kts | 186° |
| 2026-05-05 12:39 | -20.46521 | 55.32511 | 9054 ft | 288 kts | 186° |
| 2026-05-05 12:39 | -20.48451 | 55.32214 | 8835 ft | 291 kts | 185° |
| 2026-05-05 12:40 | -20.50466 | 55.31903 | 8507 ft | 292 kts | 185° |
| 2026-05-05 12:40 | -20.52457 | 55.31592 | 8024 ft | 288 kts | 186° |
| 2026-05-05 12:40 | -20.54419 | 55.31284 | 7595 ft | 281 kts | 186° |
| 2026-05-05 12:40 | -20.56335 | 55.30983 | 7210 ft | 275 kts | 186° |
| 2026-05-05 12:41 | -20.58234 | 55.30685 | 6817 ft | 275 kts | 186° |
| 2026-05-05 12:41 | -20.60101 | 55.30393 | 6439 ft | 275 kts | 186° |
| 2026-05-05 12:41 | -20.61998 | 55.30097 | 6029 ft | 275 kts | 186° |
| 2026-05-05 12:41 | -20.63910 | 55.29799 | 5629 ft | 274 kts | 186° |
| 2026-05-05 12:42 | -20.65749 | 55.29511 | 5432 ft | 265 kts | 186° |
| 2026-05-05 12:42 | -20.67538 | 55.29229 | 5331 ft | 254 kts | 186° |
| 2026-05-05 12:42 | -20.69241 | 55.28961 | 5204 ft | 244 kts | 185° |
| 2026-05-05 12:42 | -20.70822 | 55.28743 | 4919 ft | 243 kts | 184° |
| 2026-05-05 12:43 | -20.72479 | 55.28550 | 4604 ft | 243 kts | 184° |
| 2026-05-05 12:43 | -20.74151 | 55.28362 | 4280 ft | 242 kts | 184° |
| 2026-05-05 12:43 | -20.75828 | 55.28168 | 3961 ft | 242 kts | 184° |
| 2026-05-05 12:43 | -20.77456 | 55.28298 | 3721 ft | 231 kts | 154° |
| 2026-05-05 12:44 | -20.78601 | 55.29408 | 3639 ft | 227 kts | 119° |
| 2026-05-05 12:44 | -20.79300 | 55.30938 | 3533 ft | 228 kts | 114° |
| 2026-05-05 12:44 | -20.79946 | 55.32465 | 3437 ft | 224 kts | 115° |
| 2026-05-05 12:44 | -20.80615 | 55.33932 | 3287 ft | 215 kts | 116° |
| 2026-05-05 12:45 | -20.81279 | 55.35342 | 3057 ft | 210 kts | 116° |
| 2026-05-05 12:45 | -20.81933 | 55.36728 | 2802 ft | 206 kts | 116° |
| 2026-05-05 12:45 | -20.82568 | 55.38066 | 2559 ft | 197 kts | 117° |
| 2026-05-05 12:45 | -20.83165 | 55.39328 | 2328 ft | 185 kts | 116° |
| 2026-05-05 12:46 | -20.83729 | 55.40520 | 2073 ft | 174 kts | 116° |
| 2026-05-05 12:46 | -20.84254 | 55.41627 | 1859 ft | 166 kts | 116° |
| 2026-05-05 12:46 | -20.84758 | 55.42696 | 1682 ft | 157 kts | 116° |
| 2026-05-05 12:46 | -20.85238 | 55.43707 | 1475 ft | 147 kts | 115° |
| 2026-05-05 12:47 | -20.85678 | 55.44638 | 1306 ft | 132 kts | 114° |
| 2026-05-05 12:47 | -20.86078 | 55.45485 | 1137 ft | 130 kts | 114° |
| 2026-05-05 12:47 | -20.86492 | 55.46361 | 948 ft | 129 kts | 114° |
| 2026-05-05 12:47 | -20.86897 | 55.47220 | 778 ft | 134 kts | 116° |
| 2026-05-05 12:48 | -20.87316 | 55.48104 | 605 ft | 132 kts | 116° |
| 2026-05-05 12:48 | -20.87729 | 55.48978 | 414 ft | 133 kts | 117° |
| 2026-05-05 12:48 | -20.88146 | 55.49854 | 232 ft | 131 kts | 118° |
| 2026-05-05 12:48 | -20.88549 | 55.50703 | 62 ft | 127 kts | 117° |
| 2026-05-05 12:49 | -20.88890 | 55.51413 | 48 ft | 89 kts | 116° |
| 2026-05-05 12:49 | -20.89078 | 55.51823 | 42 ft | 43 kts | 116° |
| 2026-05-05 12:49 | -20.89181 | 55.52045 | 43 ft | 25 kts | 117° |
| 2026-05-05 12:49 | -20.89243 | 55.52174 | 42 ft | 15 kts | 117° |
| 2026-05-05 12:50 | -20.89329 | 55.52211 | 41 ft | 15 kts | 203° |
| 2026-05-05 12:50 | -20.89412 | 55.52149 | 45 ft | 13 kts | 252° |
| 2026-05-05 12:50 | -20.89377 | 55.52061 | 45 ft | 14 kts | 300° |
| 2026-05-05 12:50 | -20.89326 | 55.51956 | 45 ft | 17 kts | 295° |
| 2026-05-05 12:51 | -20.89266 | 55.51830 | 45 ft | 21 kts | 297° |
| 2026-05-05 12:51 | -20.89210 | 55.51710 | 46 ft | 16 kts | 296° |
| 2026-05-05 12:51 | -20.89158 | 55.51599 | 47 ft | 18 kts | 296° |
| 2026-05-05 12:51 | -20.89104 | 55.51484 | 49 ft | 16 kts | 297° |
| 2026-05-05 12:52 | -20.89069 | 55.51399 | 49 ft | 9 kts | 270° |
| 2026-05-05 12:52 | -20.89088 | 55.51382 | 49 ft | 4 kts | 204° |
| 2026-05-05 12:52 | -20.89119 | 55.51366 | 51 ft | 5 kts | 207° |
| 2026-05-05 12:52 | -20.89139 | 55.51355 | 52 ft | 2 kts | 207° |
| 2026-05-05 12:53 | -20.89148 | 55.51350 | 50 ft | 0 kts | 206° |